Time;durP1;ratioP1;P1;durP2;ratioP2;P2;SDS_P1;SDS_P2;PMS_P1;PMS_P2;Temp;Humidity;BMP_temperature;BMP_pressure;BME280_temperature;BME280_humidity;BME280_pressure;Samples;Min_cycle;Max_cycle;Signal;HPM_P1;HPM_P2
2024/03/24 00:00:31;;;;;;;11.00;7.50;;;;;;;13.33;53.01;99334.06;105309;1256;62470;-60
2024/03/24 00:02:59;;;;;;;10.90;7.70;;;;;;;13.31;52.91;99327.20;105015;1254;61528;-56
2024/03/24 00:05:26;;;;;;;12.50;9.10;;;;;;;13.28;52.91;99325.39;105324;1259;61256;-55
2024/03/24 00:07:55;;;;;;;11.90;8.10;;;;;;;13.24;52.90;99318.95;108427;1256;65723;-62
2024/03/24 00:10:22;;;;;;;12.40;7.60;;;;;;;13.22;53.11;99310.94;106220;1259;61266;-58
2024/03/24 00:12:50;;;;;;;14.10;8.60;;;;;;;13.19;53.30;99306.84;105395;1255;63825;-60
2024/03/24 00:15:18;;;;;;;10.40;7.40;;;;;;;13.15;53.43;99303.70;105163;1263;61395;-62
2024/03/24 00:17:46;;;;;;;14.50;7.90;;;;;;;13.17;53.70;99297.73;105212;1260;61257;-59
2024/03/24 00:20:14;;;;;;;14.20;8.00;;;;;;;13.20;53.87;99295.38;105591;1253;65638;-57
2024/03/24 00:22:42;;;;;;;13.00;8.40;;;;;;;13.22;54.00;99299.30;105288;1259;61324;-58
2024/03/24 00:25:09;;;;;;;12.50;8.80;;;;;;;13.19;54.01;99298.39;105293;1254;64160;-57
2024/03/24 00:27:38;;;;;;;14.00;9.20;;;;;;;13.13;54.10;99297.40;105458;1256;61385;-61
2024/03/24 00:30:07;;;;;;;14.70;9.40;;;;;;;13.09;54.32;99288.95;105720;1256;61305;-60
2024/03/24 00:32:34;;;;;;;12.90;9.10;;;;;;;13.05;54.53;99282.08;105796;1251;64526;-62
2024/03/24 00:35:02;;;;;;;12.60;8.60;;;;;;;13.00;54.47;99275.42;105904;1256;61382;-59
2024/03/24 00:37:29;;;;;;;12.60;8.70;;;;;;;12.95;54.58;99265.45;105321;1251;63685;-63
2024/03/24 00:39:58;;;;;;;14.90;8.20;;;;;;;12.91;54.71;99269.02;105893;1256;61351;-65
2024/03/24 00:42:25;;;;;;;12.00;8.40;;;;;;;12.94;54.67;99272.25;105442;1256;61478;-64
2024/03/24 00:44:53;;;;;;;13.90;9.20;;;;;;;12.98;54.66;99278.81;105334;1257;64447;-63
2024/03/24 00:47:20;;;;;;;10.80;8.30;;;;;;;12.98;54.60;99284.60;105326;1260;70857;-60
2024/03/24 00:49:48;;;;;;;13.50;8.10;;;;;;;12.97;54.69;99279.98;105402;1256;63770;-66
2024/03/24 00:52:15;;;;;;;11.70;8.30;;;;;;;12.98;54.62;99282.19;105470;1260;61245;-62
2024/03/24 00:54:43;;;;;;;14.30;9.20;;;;;;;12.98;54.52;99281.66;105253;1258;61219;-66
2024/03/24 00:57:10;;;;;;;12.40;8.40;;;;;;;12.95;54.37;99272.94;105348;1257;66961;-62
2024/03/24 00:59:38;;;;;;;12.60;8.60;;;;;;;12.92;54.38;99264.33;105341;1251;61408;-62
2024/03/24 01:02:05;;;;;;;13.60;9.20;;;;;;;12.89;54.41;99258.52;105327;1256;62529;-57
2024/03/24 01:04:33;;;;;;;13.80;9.40;;;;;;;12.85;54.48;99255.38;105081;1257;61375;-61
2024/03/24 01:07:00;;;;;;;13.10;8.80;;;;;;;12.82;54.56;99252.71;105885;1254;61402;-61
2024/03/24 01:09:28;;;;;;;13.40;8.40;;;;;;;12.85;54.52;99248.39;105190;1252;65813;-56
2024/03/24 01:11:56;;;;;;;12.90;8.10;;;;;;;12.89;54.40;99250.52;106041;1258;61545;-60
2024/03/24 01:14:24;;;;;;;13.60;9.30;;;;;;;12.91;54.36;99255.64;105315;1256;64167;-61
2024/03/24 01:16:52;;;;;;;14.30;9.30;;;;;;;12.90;54.29;99254.27;105422;1257;62032;-60
2024/03/24 01:19:20;;;;;;;15.40;9.30;;;;;;;12.90;54.16;99258.75;105446;1251;61443;-61
2024/03/24 01:21:47;;;;;;;14.70;9.50;;;;;;;12.89;54.13;99265.19;105291;1256;64511;-63
2024/03/24 01:24:15;;;;;;;14.20;9.90;;;;;;;12.85;54.03;99262.58;105247;1258;61235;-62
2024/03/24 01:26:42;;;;;;;14.10;9.50;;;;;;;12.82;53.99;99262.22;105376;1256;63936;-61
2024/03/24 01:29:11;;;;;;;13.10;10.00;;;;;;;12.79;54.15;99265.55;105324;1256;61231;-60
2024/03/24 01:31:38;;;;;;;12.50;9.40;;;;;;;12.77;54.10;99268.32;105644;1257;61258;-60
2024/03/24 01:34:06;;;;;;;14.20;9.50;;;;;;;12.76;54.30;99270.11;105353;1262;66995;-65
2024/03/24 01:36:34;;;;;;;14.10;8.90;;;;;;;12.74;54.30;99264.49;105353;1257;61259;-63
2024/03/24 01:39:02;;;;;;;12.40;8.30;;;;;;;12.78;54.09;99260.54;105123;1254;63749;-59
2024/03/24 01:41:30;;;;;;;13.40;9.40;;;;;;;12.84;53.97;99254.83;105746;1258;61264;-59
2024/03/24 01:43:57;;;;;;;13.30;8.40;;;;;;;12.87;54.08;99255.02;105321;1251;61245;-60
2024/03/24 01:46:25;;;;;;;13.90;9.70;;;;;;;12.88;54.07;99253.84;105912;1256;64609;-59
2024/03/24 01:48:53;;;;;;;14.60;9.40;;;;;;;12.88;54.14;99248.42;105298;1256;61391;-60
2024/03/24 01:51:20;;;;;;;13.90;9.90;;;;;;;12.85;54.06;99243.58;105175;1251;62562;-60
2024/03/24 01:53:48;;;;;;;13.30;9.10;;;;;;;12.82;54.03;99239.69;106228;1254;61217;-58
2024/03/24 01:56:15;;;;;;;12.70;8.90;;;;;;;12.79;53.98;99245.79;105342;1255;61242;-61
2024/03/24 01:58:43;;;;;;;14.50;9.90;;;;;;;12.77;53.99;99246.60;105315;1257;65725;-59
2024/03/24 02:01:10;;;;;;;14.20;9.70;;;;;;;12.74;54.03;99245.63;105472;1255;61278;-61
2024/03/24 02:03:38;;;;;;;13.70;9.90;;;;;;;12.70;53.93;99237.27;105273;1258;62521;-63
2024/03/24 02:06:05;;;;;;;13.00;9.10;;;;;;;12.65;54.07;99237.41;105634;1257;61206;-58
2024/03/24 02:08:33;;;;;;;14.60;10.10;;;;;;;12.67;54.06;99235.36;105289;1257;61253;-61
2024/03/24 02:11:01;;;;;;;12.40;9.00;;;;;;;12.70;53.83;99233.56;105975;1257;65695;-62
2024/03/24 02:13:28;;;;;;;14.30;9.40;;;;;;;12.70;53.73;99231.16;105297;1256;61513;-67
2024/03/24 02:15:56;;;;;;;13.00;9.40;;;;;;;12.68;53.83;99226.05;106008;1254;63767;-58
2024/03/24 02:18:23;;;;;;;16.10;10.40;;;;;;;12.65;53.66;99223.58;105339;1254;61277;-61
2024/03/24 02:20:51;;;;;;;13.20;9.10;;;;;;;12.61;53.64;99224.11;105239;1258;61267;-59
2024/03/24 02:23:19;;;;;;;17.10;10.60;;;;;;;12.60;53.64;99220.90;105408;1257;66240;-58
2024/03/24 02:25:46;;;;;;;12.70;9.20;;;;;;;12.58;53.65;99213.75;105292;1254;61434;-59
2024/03/24 02:28:14;;;;;;;12.60;9.20;;;;;;;12.53;53.65;99211.30;105373;1257;62450;-61
2024/03/24 02:30:42;;;;;;;15.20;9.90;;;;;;;12.48;53.63;99209.42;105216;1253;370700;-57
2024/03/24 02:35:27;;;;;;;10.40;5.60;;;;;;;12.02;54.74;99210.34;102270;1302;600423;-58
2024/03/24 02:37:54;;;;;;;13.60;9.90;;;;;;;12.25;54.05;99204.55;104562;1271;59908;-59
2024/03/24 02:40:21;;;;;;;13.40;9.70;;;;;;;12.25;53.96;99202.27;104361;1270;60221;-61
2024/03/24 02:42:49;;;;;;;13.00;8.60;;;;;;;12.27;53.86;99200.66;104537;1268;64518;-61
2024/03/24 02:45:17;;;;;;;15.00;10.50;;;;;;;12.32;53.81;99202.07;105159;1269;62962;-59
2024/03/24 02:47:44;;;;;;;14.90;9.80;;;;;;;12.31;53.68;99210.81;104954;1265;62914;-61
2024/03/24 02:50:12;;;;;;;15.40;9.60;;;;;;;12.28;53.73;99224.53;105363;1263;474169;-63
2024/03/24 02:52:39;;;;;;;10.70;4.20;;;;;;;12.24;53.62;99220.14;105452;1261;59781;-64
2024/03/24 02:55:07;;;;;;;15.30;10.20;;;;;;;12.22;53.64;99218.65;105601;1264;64109;-60
2024/03/24 02:57:34;;;;;;;16.80;9.80;;;;;;;12.21;53.89;99218.18;105700;1264;60260;-61
2024/03/24 03:00:05;;;;;;;16.00;9.80;;;;;;;12.20;53.97;99215.19;106634;1254;62523;-61
2024/03/24 03:02:32;;;;;;;14.70;10.20;;;;;;;12.17;53.85;99214.39;107419;1254;60418;-62
2024/03/24 03:05:00;;;;;;;11.10;5.30;;;;;;;12.14;53.90;99209.61;107317;1251;59105;-60
2024/03/24 03:07:28;;;;;;;13.70;10.50;;;;;;;12.12;53.95;99210.52;105668;1257;67485;-58
2024/03/24 03:09:55;;;;;;;16.60;11.10;;;;;;;12.07;53.92;99207.52;106043;1253;61536;-66
2024/03/24 03:12:23;;;;;;;15.40;10.10;;;;;;;12.03;54.01;99206.35;106908;1253;62431;-61
2024/03/24 03:14:51;;;;;;;13.80;10.20;;;;;;;12.06;54.04;99207.67;105509;1257;60562;-65
2024/03/24 03:17:19;;;;;;;13.30;9.70;;;;;;;12.10;53.85;99205.52;106136;1251;60441;-61
2024/03/24 03:19:47;;;;;;;16.10;9.80;;;;;;;12.12;53.88;99201.75;105429;1257;64979;-61
2024/03/24 03:22:14;;;;;;;15.30;10.80;;;;;;;12.12;53.87;99210.55;105291;1256;60809;-64
2024/03/24 03:24:42;;;;;;;14.10;10.10;;;;;;;12.10;53.99;99211.44;105478;1254;63879;-61
2024/03/24 03:27:11;;;;;;;10.60;4.70;;;;;;;12.07;53.93;99210.33;105457;1257;60539;-60
2024/03/24 03:29:39;;;;;;;16.30;12.20;;;;;;;12.04;53.79;99207.64;105372;1256;60447;-61
2024/03/24 03:32:07;;;;;;;14.10;10.10;;;;;;;11.99;53.71;99206.58;106292;1251;64942;-65
2024/03/24 03:34:34;;;;;;;16.20;11.20;;;;;;;11.95;53.74;99207.71;105870;1256;60472;-65
2024/03/24 03:37:02;;;;;;;8.60;4.10;;;;;;;11.90;53.83;99205.63;105422;1254;72676;-60
2024/03/24 03:39:30;;;;;;;17.00;11.40;;;;;;;11.82;53.87;99206.19;105845;1256;60533;-59
2024/03/24 03:41:59;;;;;;;15.60;11.60;;;;;;;11.73;53.85;99202.04;105326;1256;60385;-65
2024/03/24 03:44:28;;;;;;;15.80;11.10;;;;;;;11.65;54.00;99203.96;106025;1251;65517;-58
2024/03/24 03:46:56;;;;;;;16.10;11.10;;;;;;;11.62;54.02;99202.37;107558;1253;61326;-66
2024/03/24 03:49:24;;;;;;;15.10;10.40;;;;;;;11.63;53.97;99199.90;105257;1256;63762;-62
2024/03/24 03:51:56;;;;;;;16.40;10.80;;;;;;;11.63;53.98;99202.01;105405;1254;60472;-68
2024/03/24 03:54:25;;;;;;;12.50;5.50;;;;;;;11.61;54.03;99196.10;105105;1257;59553;-59
2024/03/24 03:56:53;;;;;;;14.90;11.30;;;;;;;11.59;54.08;99198.10;105325;1254;65008;-64
2024/03/24 03:59:20;;;;;;;15.80;11.10;;;;;;;11.55;54.12;99197.42;106188;1251;61899;-67
2024/03/24 04:01:48;;;;;;;14.80;10.60;;;;;;;11.50;54.18;99195.81;105614;1256;64314;-65
2024/03/24 04:04:15;;;;;;;17.40;11.60;;;;;;;11.47;54.37;99196.47;105391;1253;60585;-65
2024/03/24 04:06:43;;;;;;;15.70;11.70;;;;;;;11.43;54.38;99194.25;105801;1256;60444;-61
2024/03/24 04:09:16;;;;;;;12.50;5.40;;;;;;;11.38;54.52;99194.42;105362;1254;66020;-60
2024/03/24 04:11:44;;;;;;;18.60;12.00;;;;;;;11.32;54.66;99197.95;105290;1254;60355;-61
2024/03/24 04:14:11;;;;;;;16.40;11.80;;;;;;;11.30;54.72;99200.50;105557;1254;63709;-59
2024/03/24 04:16:42;;;;;;;17.60;10.80;;;;;;;11.32;54.58;99206.11;105762;1254;60625;-59
2024/03/24 04:19:09;;;;;;;11.40;4.40;;;;;;;11.35;54.47;99208.95;105599;1251;60245;-59
2024/03/24 04:21:37;;;;;;;15.50;11.40;;;;;;;11.32;54.54;99207.95;106015;1251;63617;-65
2024/03/24 04:24:05;;;;;;;16.30;12.10;;;;;;;11.29;54.60;99203.20;105493;1254;60404;-58
2024/03/24 04:26:33;;;;;;;15.50;11.60;;;;;;;11.28;54.59;99201.21;105870;1254;62586;-65
2024/03/24 04:29:01;;;;;;;15.70;11.80;;;;;;;11.26;54.65;99203.84;105399;1252;60430;-65
2024/03/24 04:31:31;;;;;;;16.40;12.10;;;;;;;11.23;54.54;99204.88;105274;1251;60355;-62
2024/03/24 04:33:58;;;;;;;17.90;12.40;;;;;;;11.18;54.65;99208.39;106780;1254;63701;-62
2024/03/24 04:36:25;;;;;;;10.20;5.00;;;;;;;11.14;54.69;99204.75;105348;1257;60216;-61
2024/03/24 04:38:54;;;;;;;18.70;11.70;;;;;;;11.09;54.75;99200.97;105321;1257;63764;-65
2024/03/24 04:41:22;;;;;;;16.70;11.20;;;;;;;11.06;54.57;99204.68;105390;1251;60836;-62
2024/03/24 04:43:51;;;;;;;16.70;11.40;;;;;;;11.05;54.66;99208.98;105342;1251;60581;-60
2024/03/24 04:46:18;;;;;;;16.60;11.10;;;;;;;11.09;54.79;99206.30;105680;1254;63675;-63
2024/03/24 04:48:46;;;;;;;9.70;4.30;;;;;;;11.10;54.82;99204.92;106318;1254;61498;-64
2024/03/24 04:51:14;;;;;;;16.30;12.30;;;;;;;11.09;54.72;99207.04;105163;1253;62412;-66
2024/03/24 04:53:42;;;;;;;17.60;12.30;;;;;;;11.05;54.67;99199.90;105398;1251;60606;-61
2024/03/24 04:56:10;;;;;;;16.90;11.40;;;;;;;11.01;54.88;99187.33;105120;1258;60479;-60
2024/03/24 04:58:38;;;;;;;11.00;4.70;;;;;;;10.98;55.05;99193.39;105590;1251;65145;-63
2024/03/24 05:01:05;;;;;;;16.80;11.80;;;;;;;10.93;55.05;99199.11;105318;1257;61531;-60
2024/03/24 05:03:33;;;;;;;12.60;5.00;;;;;;;10.89;55.12;99196.92;105389;1251;63709;-61
2024/03/24 05:06:00;;;;;;;17.60;12.50;;;;;;;10.85;55.25;99196.79;105412;1254;61783;-60
2024/03/24 05:08:29;;;;;;;13.80;6.00;;;;;;;10.81;55.41;99196.84;106107;1253;60466;-60
2024/03/24 05:10:57;;;;;;;18.40;12.70;;;;;;;10.83;55.28;99191.84;106047;1251;63671;-61
2024/03/24 05:13:24;;;;;;;16.70;12.20;;;;;;;10.86;55.25;99198.77;106018;1254;60475;-63
2024/03/24 05:15:52;;;;;;;19.30;13.20;;;;;;;10.87;55.26;99202.15;105407;1252;63832;-56
2024/03/24 05:18:19;;;;;;;17.40;12.50;;;;;;;10.85;55.20;99204.98;105360;1254;60600;-54
2024/03/24 05:20:47;;;;;;;9.80;4.30;;;;;;;10.82;55.35;99203.80;105469;1253;60511;-59
2024/03/24 05:23:18;;;;;;;18.50;12.50;;;;;;;10.76;55.24;99204.66;105387;1258;64983;-59
2024/03/24 05:25:49;;;;;;;22.20;13.90;;;;;;;10.72;55.44;99203.38;105475;1252;61548;-60
2024/03/24 05:28:17;;;;;;;11.50;5.30;;;;;;;10.67;55.37;99202.98;105516;1251;62815;-61
2024/03/24 05:30:46;;;;;;;17.40;13.20;;;;;;;10.62;55.46;99203.59;105471;1256;60859;-61
2024/03/24 05:33:19;;;;;;;11.20;4.50;;;;;;;10.59;55.56;99199.83;105427;1257;60533;-61
2024/03/24 05:36:03;;;;;;;18.70;12.10;;;;;;;10.62;55.68;99194.88;106296;1254;65033;-61
2024/03/24 05:38:34;;;;;;;17.80;12.50;;;;;;;10.69;55.56;99187.84;106058;1257;60440;-62
2024/03/24 05:41:07;;;;;;;11.10;5.70;;;;;;;10.72;55.54;99190.52;105774;1257;62532;-64
2024/03/24 05:43:36;;;;;;;16.80;12.10;;;;;;;10.72;55.51;99189.77;105462;1251;60555;-57
2024/03/24 05:46:06;;;;;;;16.60;12.70;;;;;;;10.71;55.47;99186.23;105205;1254;60430;-59
2024/03/24 05:48:34;;;;;;;11.50;5.10;;;;;;;10.68;55.40;99186.08;105323;1256;63657;-64
2024/03/24 05:51:03;;;;;;;18.60;13.20;;;;;;;10.65;55.38;99185.30;106874;1254;61355;-61
2024/03/24 05:53:32;;;;;;;19.70;12.40;;;;;;;10.63;55.63;99187.58;108380;1255;62448;-53
2024/03/24 05:56:01;;;;;;;9.50;5.00;;;;;;;10.60;55.71;99186.59;105877;1253;60552;-73
2024/03/24 05:58:29;;;;;;;21.30;14.20;;;;;;;10.58;55.79;99191.52;107211;1251;60498;-58
2024/03/24 06:00:57;;;;;;;20.90;13.50;;;;;;;10.59;55.76;99193.41;105223;1254;64921;-61
2024/03/24 06:03:24;;;;;;;11.40;4.60;;;;;;;10.66;55.74;99196.10;105301;1257;63503;-56
2024/03/24 06:05:52;;;;;;;15.90;11.60;;;;;;;10.72;55.56;99190.00;105029;1254;62528;-65
2024/03/24 06:08:19;;;;;;;18.90;12.50;;;;;;;10.79;55.48;99187.15;106901;1254;60974;-61
2024/03/24 06:10:49;;;;;;;18.30;12.50;;;;;;;10.85;55.45;99182.41;106472;1253;60990;-67
2024/03/24 06:13:16;;;;;;;9.40;4.50;;;;;;;10.87;55.33;99178.33;106258;1256;67147;-58
2024/03/24 06:15:44;;;;;;;19.90;12.70;;;;;;;10.90;55.37;99175.20;105249;1254;60427;-67
2024/03/24 06:18:11;;;;;;;17.90;12.40;;;;;;;10.93;55.29;99172.48;106124;1257;62526;-62
2024/03/24 06:20:42;;;;;;;12.50;4.80;;;;;;;10.94;55.29;99171.48;105455;1251;60501;-61
2024/03/24 06:23:10;;;;;;;22.10;13.40;;;;;;;10.93;55.08;99169.30;105190;1256;60521;-64
2024/03/24 06:25:37;;;;;;;18.70;13.60;;;;;;;10.90;55.08;99170.59;105269;1257;65972;-57
2024/03/24 06:28:05;;;;;;;10.80;5.20;;;;;;;10.87;55.12;99177.80;105163;1257;60405;-61
2024/03/24 06:30:32;;;;;;;18.20;13.60;;;;;;;10.82;55.12;99179.73;107469;1254;62517;-63
2024/03/24 06:33:00;;;;;;;16.30;11.70;;;;;;;10.77;55.43;99179.11;105191;1254;60562;-57
2024/03/24 06:35:28;;;;;;;11.70;4.80;;;;;;;10.81;55.43;99182.39;105149;1252;60716;-59
2024/03/24 06:37:55;;;;;;;17.90;12.10;;;;;;;10.87;55.32;99177.46;105587;1257;64956;-58
2024/03/24 06:40:25;;;;;;;20.80;13.10;;;;;;;10.87;55.24;99175.69;108483;1253;60399;-63
2024/03/24 06:43:02;;;;;;;19.00;13.00;;;;;;;10.86;55.25;99175.46;106127;1253;64329;-62
2024/03/24 06:45:34;;;;;;;17.70;11.60;;;;;;;10.87;55.53;99177.43;106039;1256;61345;-60
2024/03/24 06:48:04;;;;;;;11.70;4.50;;;;;;;10.89;55.45;99171.49;105444;1251;62159;-59
2024/03/24 06:50:32;;;;;;;17.40;12.50;;;;;;;10.90;55.46;99170.48;105417;1251;65784;-62
2024/03/24 06:53:00;;;;;;;21.40;12.70;;;;;;;10.89;55.43;99165.82;105912;1254;61969;-60
2024/03/24 06:55:32;;;;;;;20.00;12.70;;;;;;;10.89;55.44;99168.29;105829;1257;64738;-61
2024/03/24 06:58:02;;;;;;;12.80;4.20;;;;;;;10.90;55.50;99157.95;105414;1251;61445;-61
2024/03/24 07:00:31;;;;;;;19.10;11.10;;;;;;;10.95;55.44;99151.66;105426;1251;61326;-63
2024/03/24 07:03:03;;;;;;;17.70;11.70;;;;;;;11.03;55.25;99157.95;106128;1251;66592;-61
2024/03/24 07:05:30;;;;;;;17.40;12.10;;;;;;;11.08;55.12;99164.64;106376;1254;62728;-59
2024/03/24 07:07:58;;;;;;;19.80;12.30;;;;;;;11.13;55.20;99170.27;106278;1253;64207;-61
2024/03/24 07:10:26;;;;;;;16.50;11.20;;;;;;;11.18;54.98;99168.88;107061;1251;61428;-62
2024/03/24 07:12:55;;;;;;;19.00;12.00;;;;;;;11.20;54.93;99167.60;106003;1254;61419;-63
2024/03/24 07:15:25;;;;;;;11.50;4.80;;;;;;;11.21;54.96;99170.52;105477;1252;75016;-60
2024/03/24 07:17:52;;;;;;;17.60;11.60;;;;;;;11.22;54.96;99174.76;106225;1251;61192;-66
2024/03/24 07:20:28;;;;;;;18.10;12.30;;;;;;;11.27;54.92;99172.04;106121;1251;63968;-60
2024/03/24 07:23:00;;;;;;;9.80;4.50;;;;;;;11.32;54.73;99168.34;105563;1256;59741;-61
2024/03/24 07:25:30;;;;;;;18.90;12.30;;;;;;;11.36;54.76;99164.85;105976;1251;61368;-65
2024/03/24 07:28:02;;;;;;;17.10;11.30;;;;;;;11.39;54.50;99162.91;105731;1251;67787;-65
2024/03/24 07:30:31;;;;;;;17.60;11.30;;;;;;;11.44;54.20;99160.98;105942;1255;62748;-65
2024/03/24 07:32:59;;;;;;;17.70;12.10;;;;;;;11.48;54.08;99156.66;106015;1251;64567;-63
2024/03/24 07:35:26;;;;;;;19.80;13.70;;;;;;;11.50;54.19;99151.44;105847;1251;61269;-62
2024/03/24 07:37:54;;;;;;;15.70;11.60;;;;;;;11.48;54.02;99148.27;105520;1257;61179;-66
2024/03/24 07:40:22;;;;;;;17.60;12.10;;;;;;;11.47;54.23;99146.91;105476;1260;76604;-67
2024/03/24 07:42:50;;;;;;;18.30;12.20;;;;;;;11.46;54.07;99142.46;106274;1257;61465;-67
2024/03/24 07:45:17;;;;;;;13.40;6.50;;;;;;;11.43;54.05;99137.36;105429;1251;74578;-59
2024/03/24 07:47:45;;;;;;;17.80;11.80;;;;;;;11.41;54.17;99133.19;105260;1250;62259;-59
2024/03/24 07:50:13;;;;;;;17.70;11.90;;;;;;;11.42;54.36;99133.82;105629;1254;61218;-62
2024/03/24 07:52:40;;;;;;;18.00;12.20;;;;;;;11.45;54.49;99131.56;105942;1251;64666;-61
2024/03/24 07:55:08;;;;;;;19.10;12.00;;;;;;;11.52;54.41;99129.08;105422;1251;61837;-59
2024/03/24 07:57:37;;;;;;;17.70;12.00;;;;;;;11.63;54.49;99126.64;106789;1253;63709;-62
2024/03/24 08:00:09;;;;;;;16.10;11.90;;;;;;;11.73;54.27;99127.79;106605;1256;61269;-60
2024/03/24 08:02:41;;;;;;;17.30;12.40;;;;;;;11.78;54.05;99131.13;105734;1251;61422;-60
2024/03/24 08:05:09;;;;;;;9.60;4.90;;;;;;;11.82;53.94;99127.23;104991;1256;76980;-68
2024/03/24 08:07:37;;;;;;;17.40;11.10;;;;;;;11.85;53.63;99124.05;106479;1254;61644;-61
2024/03/24 08:10:05;;;;;;;19.40;12.40;;;;;;;11.84;53.85;99120.23;105778;1254;64217;-59
2024/03/24 08:12:32;;;;;;;17.70;11.80;;;;;;;11.82;53.98;99111.39;105203;1251;61275;-62
2024/03/24 08:15:00;;;;;;;19.10;12.40;;;;;;;11.81;54.40;99116.19;106717;1251;62568;-62
2024/03/24 08:17:28;;;;;;;17.30;11.90;;;;;;;11.81;54.72;99119.52;105448;1253;64594;-61
2024/03/24 08:19:55;;;;;;;16.30;11.70;;;;;;;11.88;54.98;99113.51;105312;1251;63774;-60
2024/03/24 08:22:23;;;;;;;18.10;12.10;;;;;;;11.98;54.97;99109.65;105390;1252;63744;-59
2024/03/24 08:24:52;;;;;;;18.30;13.10;;;;;;;12.06;54.98;99106.20;105259;1251;61349;-58
2024/03/24 08:27:21;;;;;;;19.40;12.00;;;;;;;12.10;54.65;99107.55;105150;1254;61340;-63
2024/03/24 08:29:49;;;;;;;16.60;11.90;;;;;;;12.14;54.86;99106.46;105401;1252;64826;-61
2024/03/24 08:32:19;;;;;;;17.80;12.60;;;;;;;12.19;55.43;99104.19;105290;1251;61721;-60
2024/03/24 08:34:47;;;;;;;18.70;13.10;;;;;;;12.23;55.26;99094.06;105375;1257;62464;-63
2024/03/24 08:37:15;;;;;;;18.60;12.60;;;;;;;12.27;55.37;99084.69;105738;1251;61375;-63
2024/03/24 08:39:42;;;;;;;16.50;11.50;;;;;;;12.38;54.98;99084.31;105281;1256;61237;-60
2024/03/24 08:42:10;;;;;;;15.90;12.00;;;;;;;12.50;54.47;99076.95;105349;1256;77667;-60
2024/03/24 08:44:38;;;;;;;16.50;12.30;;;;;;;12.54;54.21;99078.00;105610;1256;61151;-54
2024/03/24 08:47:06;;;;;;;18.30;12.10;;;;;;;12.57;53.87;99083.12;105920;1251;64009;-61
2024/03/24 08:49:33;;;;;;;16.00;12.10;;;;;;;12.56;53.38;99093.86;105459;1253;61252;-62
2024/03/24 08:52:01;;;;;;;16.50;11.60;;;;;;;12.51;53.44;99090.36;105470;1251;62251;-55
2024/03/24 08:54:28;;;;;;;16.80;12.10;;;;;;;12.48;53.55;99088.91;105163;1260;73147;-63
2024/03/24 08:56:56;;;;;;;18.00;11.70;;;;;;;12.47;53.68;99092.88;106846;1251;62335;-62
2024/03/24 08:59:24;;;;;;;16.70;12.00;;;;;;;12.48;53.82;99083.27;106217;1251;62648;-62
2024/03/24 09:01:51;;;;;;;18.50;12.40;;;;;;;12.50;53.77;99083.64;105269;1254;61355;-59
2024/03/24 09:04:19;;;;;;;17.30;12.20;;;;;;;12.46;53.44;99092.23;105322;1253;61346;-61
2024/03/24 09:06:46;;;;;;;21.00;12.60;;;;;;;12.41;53.48;99082.42;105421;1251;67650;-60
2024/03/24 09:09:14;;;;;;;19.10;12.00;;;;;;;12.42;53.46;99088.14;105364;1251;61367;-61
2024/03/24 09:11:41;;;;;;;15.70;11.30;;;;;;;12.46;53.68;99092.80;105412;1254;75312;-64
2024/03/24 09:14:09;;;;;;;16.50;11.60;;;;;;;12.44;53.66;99090.17;105652;1255;61344;-59
2024/03/24 09:16:36;;;;;;;15.70;12.10;;;;;;;12.39;53.81;99085.66;105483;1256;61279;-62
2024/03/24 09:19:04;;;;;;;18.30;12.10;;;;;;;12.34;54.10;99075.31;105394;1255;64548;-62
2024/03/24 09:21:32;;;;;;;16.50;10.80;;;;;;;12.30;54.45;99070.77;105374;1251;61220;-63
2024/03/24 09:23:59;;;;;;;20.30;12.00;;;;;;;12.27;54.50;99071.59;107494;1256;74860;-59
2024/03/24 09:26:27;;;;;;;17.40;12.60;;;;;;;12.26;54.71;99066.57;105300;1256;61209;-62
2024/03/24 09:28:54;;;;;;;18.40;12.10;;;;;;;12.27;54.85;99062.48;105454;1251;61700;-62
2024/03/24 09:31:22;;;;;;;19.10;12.20;;;;;;;12.36;55.10;99060.10;105418;1257;68543;-61
2024/03/24 09:33:50;;;;;;;16.00;10.70;;;;;;;12.50;54.85;99058.21;106155;1252;61387;-62
2024/03/24 09:36:18;;;;;;;18.10;11.20;;;;;;;12.57;54.39;99055.00;105354;1254;64827;-63
2024/03/24 09:38:45;;;;;;;16.40;11.70;;;;;;;12.58;54.29;99060.01;105657;1251;62390;-63
2024/03/24 09:41:13;;;;;;;18.70;12.00;;;;;;;12.59;54.77;99057.06;105733;1251;61264;-57
2024/03/24 09:43:40;;;;;;;18.10;13.00;;;;;;;12.63;54.95;99057.45;105433;1252;65525;-70
2024/03/24 09:46:10;;;;;;;16.50;12.10;;;;;;;12.67;55.01;99054.30;105620;1256;72721;-66
2024/03/24 09:48:38;;;;;;;17.40;11.40;;;;;;;12.69;55.50;99044.42;105524;1254;74903;-62
2024/03/24 09:51:05;;;;;;;17.30;11.50;;;;;;;12.75;55.45;99048.67;105137;1254;61263;-64
2024/03/24 09:53:33;;;;;;;18.50;12.40;;;;;;;12.80;55.04;99059.83;105263;1250;61393;-61
2024/03/24 09:56:01;;;;;;;16.00;11.00;;;;;;;12.81;54.93;99062.69;105367;1254;66844;-63
2024/03/24 09:58:30;;;;;;;19.90;12.00;;;;;;;12.84;54.96;99065.45;105910;1255;61209;-66
2024/03/24 10:00:57;;;;;;;17.50;12.50;;;;;;;12.86;54.80;99064.23;105724;1257;66402;-66
2024/03/24 10:03:25;;;;;;;19.20;12.40;;;;;;;12.83;54.65;99066.58;105449;1251;61255;-68
2024/03/24 10:05:56;;;;;;;16.60;11.90;;;;;;;12.79;54.95;99063.33;105314;1251;62609;-66
2024/03/24 10:08:24;;;;;;;20.80;13.60;;;;;;;12.79;55.37;99063.48;105658;1252;76847;-59
2024/03/24 10:10:52;;;;;;;15.90;11.00;;;;;;;12.84;55.54;99059.11;105415;1251;63745;-61
2024/03/24 10:13:20;;;;;;;15.50;11.30;;;;;;;12.93;55.31;99057.60;106051;1252;73676;-63
2024/03/24 10:15:48;;;;;;;16.20;11.10;;;;;;;13.02;55.03;99061.52;105467;1254;61343;-60
2024/03/24 10:18:16;;;;;;;14.90;10.70;;;;;;;13.08;54.74;99055.39;105339;1251;61335;-65
2024/03/24 10:20:43;;;;;;;17.60;11.80;;;;;;;13.09;54.71;99053.30;105709;1251;76847;-64
2024/03/24 10:23:11;;;;;;;14.20;11.10;;;;;;;13.11;54.74;99048.35;105459;1252;61586;-66
2024/03/24 10:25:38;;;;;;;17.40;10.90;;;;;;;13.16;54.87;99042.15;105450;1251;74932;-65
2024/03/24 10:28:07;;;;;;;15.30;11.20;;;;;;;13.21;55.00;99035.08;105508;1254;61381;-61
2024/03/24 10:30:35;;;;;;;14.60;11.10;;;;;;;13.25;54.85;99035.76;107226;1256;61156;-63
2024/03/24 10:33:02;;;;;;;16.90;12.10;;;;;;;13.24;54.56;99030.90;106773;1253;68486;-65
2024/03/24 10:35:30;;;;;;;16.60;11.60;;;;;;;13.21;54.42;99032.07;106474;1253;72851;-69
2024/03/24 10:37:59;;;;;;;17.40;10.60;;;;;;;13.25;54.42;99036.36;105257;1257;64070;-55
2024/03/24 10:40:27;;;;;;;20.40;12.10;;;;;;;13.32;54.18;99040.77;105898;1254;61436;-58
2024/03/24 10:42:54;;;;;;;14.10;10.20;;;;;;;13.34;54.00;99042.40;105026;1254;61350;-60
2024/03/24 10:45:24;;;;;;;20.60;12.20;;;;;;;13.36;54.15;99041.86;104903;1256;77255;-68
2024/03/24 10:48:03;;;;;;;18.80;12.70;;;;;;;13.39;54.07;99033.30;106966;1254;73056;-71
2024/03/24 10:50:32;;;;;;;17.20;12.70;;;;;;;13.42;53.95;99032.05;108103;1257;65861;-69
2024/03/24 10:53:03;;;;;;;17.30;12.80;;;;;;;13.42;53.93;99029.56;105143;1254;61289;-66
2024/03/24 10:55:31;;;;;;;16.40;11.10;;;;;;;13.42;53.95;99029.93;105851;1256;61298;-66
2024/03/24 10:57:59;;;;;;;17.40;12.10;;;;;;;13.43;54.01;99030.33;105844;1253;64855;-68
2024/03/24 11:00:29;;;;;;;19.30;12.00;;;;;;;13.45;54.04;99032.39;105032;1258;61388;-64
2024/03/24 11:03:00;;;;;;;18.10;11.40;;;;;;;13.47;53.97;99027.13;105373;1258;75309;-66
2024/03/24 11:05:29;;;;;;;15.30;10.50;;;;;;;13.53;54.04;99023.23;105074;1255;61269;-66
2024/03/24 11:07:57;;;;;;;18.30;11.30;;;;;;;13.61;53.96;99016.80;105102;1259;61372;-67
2024/03/24 11:10:24;;;;;;;19.60;11.60;;;;;;;13.66;53.81;99020.46;105045;1255;74777;-71
2024/03/24 11:12:52;;;;;;;15.50;10.50;;;;;;;13.69;53.64;99023.91;105187;1255;73257;-65
2024/03/24 11:15:20;;;;;;;14.30;10.70;;;;;;;13.68;53.56;99022.80;107394;1260;65985;-64
2024/03/24 11:17:48;;;;;;;16.60;11.40;;;;;;;13.67;53.46;99024.67;105300;1253;62261;-66